createdAt,value
2019-02-16T00:02:08.994Z,63.00
2019-02-16T00:04:36.740Z,62.60
2019-02-16T00:07:04.418Z,62.30
2019-02-16T00:09:32.251Z,62.30
2019-02-16T00:11:59.936Z,62.40
2019-02-16T00:14:28.207Z,62.70
2019-02-16T00:16:55.893Z,63.20
2019-02-16T00:19:23.621Z,63.60
2019-02-16T00:21:51.301Z,63.80
2019-02-16T00:24:19.046Z,63.60
2019-02-16T00:26:46.760Z,63.60
2019-02-16T00:29:14.514Z,63.40
2019-02-16T00:31:42.367Z,63.30
2019-02-16T00:34:10.043Z,63.20
2019-02-16T00:36:37.963Z,64.20
2019-02-16T00:39:06.172Z,63.40
2019-02-16T00:41:34.030Z,63.10
2019-02-16T00:44:01.934Z,63.10
2019-02-16T00:46:29.682Z,63.40
2019-02-16T00:48:57.476Z,63.40
2019-02-16T00:51:25.238Z,64.20
2019-02-16T00:53:52.932Z,64.20
2019-02-16T00:56:20.590Z,64.10
2019-02-16T00:58:48.347Z,64.00
2019-02-16T01:01:16.121Z,64.00
2019-02-16T01:03:43.857Z,63.90
2019-02-16T01:06:11.601Z,64.10
2019-02-16T01:08:39.450Z,64.10
2019-02-16T01:11:07.350Z,64.10
2019-02-16T01:13:35.257Z,64.60
2019-02-16T01:16:03.123Z,64.70
2019-02-16T01:18:30.964Z,65.20
2019-02-16T01:20:58.647Z,65.40
2019-02-16T01:23:26.382Z,65.70
2019-02-16T01:25:54.165Z,66.10
2019-02-16T01:28:22.034Z,66.00
2019-02-16T01:30:49.717Z,66.30
2019-02-16T01:33:17.561Z,66.20
2019-02-16T01:38:13.052Z,67.00
2019-02-16T01:40:40.737Z,67.20
2019-02-16T01:43:08.532Z,67.20
2019-02-16T01:45:36.231Z,67.10
2019-02-16T01:48:04.090Z,67.30
2019-02-16T01:50:31.865Z,67.00
2019-02-16T01:52:59.648Z,66.90
2019-02-16T01:55:27.430Z,67.10
2019-02-16T01:57:54.978Z,67.10
2019-02-16T02:00:22.722Z,67.40
2019-02-16T02:02:50.485Z,68.00
2019-02-16T02:05:18.354Z,68.30
2019-02-16T02:07:46.018Z,68.70
2019-02-16T02:10:13.858Z,68.90
2019-02-16T02:12:41.678Z,68.90
2019-02-16T02:15:09.522Z,68.80
2019-02-16T02:17:37.190Z,68.70
2019-02-16T02:20:05.188Z,69.20
2019-02-16T02:22:34.102Z,69.70
2019-02-16T02:25:02.029Z,69.20
2019-02-16T02:27:31.327Z,68.70
2019-02-16T02:29:58.973Z,68.60
2019-02-16T02:32:26.857Z,68.70
2019-02-16T02:34:54.622Z,68.90
2019-02-16T02:37:22.309Z,69.00
2019-02-16T02:39:50.049Z,68.50
2019-02-16T02:42:17.922Z,68.50
2019-02-16T02:44:45.791Z,69.20
2019-02-16T02:49:41.772Z,70.50
2019-02-16T02:52:09.700Z,71.00
2019-02-16T02:54:37.348Z,70.80
2019-02-16T02:57:05.226Z,71.00
2019-02-16T02:59:32.918Z,71.20
2019-02-16T03:02:00.817Z,71.50
2019-02-16T03:04:28.499Z,71.50
2019-02-16T03:06:56.357Z,72.60
2019-02-16T03:09:24.014Z,73.60
2019-02-16T03:11:51.814Z,73.70
2019-02-16T03:14:19.463Z,75.00
2019-02-16T03:16:47.285Z,74.30
2019-02-16T03:19:15.088Z,74.80
2019-02-16T03:21:42.861Z,75.10
2019-02-16T03:24:10.515Z,74.60
2019-02-16T03:26:54.668Z,74.00
2019-02-16T03:29:50.550Z,74.40
2019-02-16T03:32:56.821Z,73.60
2019-02-16T03:36:05.408Z,73.80
2019-02-16T03:38:49.125Z,74.00
2019-02-16T03:41:18.389Z,73.60
2019-02-16T03:43:46.176Z,74.00
2019-02-16T03:46:13.820Z,73.70
2019-02-16T03:48:41.588Z,73.00
2019-02-16T03:51:09.248Z,72.40
2019-02-16T03:53:36.996Z,72.20
2019-02-16T03:56:04.653Z,71.80
2019-02-16T03:58:32.509Z,71.40
2019-02-16T04:01:00.188Z,71.20
2019-02-16T04:03:27.922Z,70.90
2019-02-16T04:05:55.601Z,71.20
2019-02-16T04:08:23.540Z,70.80
2019-02-16T04:10:51.226Z,70.90
2019-02-16T04:13:19.262Z,71.00
2019-02-16T04:15:47.019Z,73.00
2019-02-16T04:18:14.654Z,73.00
2019-02-16T04:20:42.384Z,73.40
2019-02-16T04:23:10.241Z,74.70
2019-02-16T04:25:37.921Z,74.30
2019-02-16T04:28:05.759Z,74.90
2019-02-16T04:30:33.522Z,75.20
2019-02-16T04:33:01.197Z,75.20
2019-02-16T04:35:28.982Z,74.80
2019-02-16T04:37:56.638Z,74.00
2019-02-16T04:40:24.369Z,74.20
2019-02-16T04:42:52.040Z,74.40
2019-02-16T04:45:19.778Z,74.40
2019-02-16T04:47:47.570Z,73.80
2019-02-16T04:50:15.414Z,73.40
2019-02-16T04:52:43.093Z,73.30
2019-02-16T04:55:10.820Z,74.30
2019-02-16T04:57:38.505Z,76.20
2019-02-16T05:00:07.195Z,76.80
2019-02-16T05:02:35.233Z,76.30
2019-02-16T05:05:03.020Z,75.70
2019-02-16T05:07:31.295Z,75.00
2019-02-16T05:09:58.956Z,74.30
2019-02-16T05:12:26.790Z,73.90
2019-02-16T05:14:54.581Z,73.60
2019-02-16T05:17:22.326Z,73.60
2019-02-16T05:19:50.010Z,73.30
2019-02-16T05:22:17.733Z,73.20
2019-02-16T05:24:45.409Z,73.40
2019-02-16T05:27:13.259Z,73.50
2019-02-16T05:29:40.925Z,73.10
2019-02-16T05:32:08.761Z,73.40
2019-02-16T05:34:36.423Z,73.10
2019-02-16T05:37:04.288Z,72.90
2019-02-16T05:39:31.959Z,72.80
2019-02-16T05:41:59.793Z,73.10
2019-02-16T05:44:27.550Z,73.40
2019-02-16T05:46:55.982Z,73.80
2019-02-16T05:49:23.736Z,73.70
2019-02-16T05:51:51.489Z,73.90
2019-02-16T05:54:19.129Z,74.00
2019-02-16T05:56:46.871Z,74.30
2019-02-16T05:59:14.521Z,74.10
2019-02-16T06:01:43.089Z,74.10
2019-02-16T06:04:10.854Z,74.90
2019-02-16T06:06:38.504Z,75.20
2019-02-16T06:09:06.365Z,75.10
2019-02-16T06:11:34.239Z,75.80
2019-02-16T06:14:02.426Z,75.90
2019-02-16T06:16:30.197Z,76.00
2019-02-16T06:18:58.027Z,75.90
2019-02-16T06:21:25.792Z,75.50
2019-02-16T06:23:53.533Z,76.10
2019-02-16T06:26:25.073Z,76.80
2019-02-16T06:28:52.838Z,77.70
2019-02-16T06:31:20.504Z,77.90
2019-02-16T06:33:48.245Z,77.40
2019-02-16T06:36:21.125Z,77.60
2019-02-16T06:38:50.545Z,77.40
2019-02-16T06:41:18.230Z,77.60
2019-02-16T06:43:46.005Z,78.60
2019-02-16T06:46:13.716Z,79.70
2019-02-16T06:48:41.544Z,80.00
2019-02-16T06:51:09.223Z,80.00
2019-02-16T06:53:37.189Z,79.80
2019-02-16T06:56:13.005Z,79.80
2019-02-16T06:58:42.377Z,79.60
2019-02-16T07:01:10.046Z,79.30
2019-02-16T07:03:37.942Z,78.50
2019-02-16T07:06:05.649Z,77.80
2019-02-16T07:08:33.560Z,77.20
2019-02-16T07:11:01.381Z,77.50
2019-02-16T07:13:29.201Z,77.20
2019-02-16T07:16:16.394Z,77.80
2019-02-16T07:18:53.709Z,77.90
2019-02-16T07:21:22.979Z,78.00
2019-02-16T07:23:50.734Z,78.50
2019-02-16T07:26:18.558Z,78.20
2019-02-16T07:28:46.441Z,78.80
2019-02-16T07:31:15.862Z,78.70
2019-02-16T07:33:44.047Z,79.10
2019-02-16T07:36:11.834Z,79.10
2019-02-16T07:38:39.491Z,79.10
2019-02-16T07:41:07.382Z,80.10
2019-02-16T07:43:53.180Z,80.10
2019-02-16T07:46:57.360Z,80.80
2019-02-16T07:49:32.937Z,80.20
2019-02-16T07:52:20.387Z,79.70
2019-02-16T07:55:03.275Z,80.00
2019-02-16T07:57:47.627Z,79.80
2019-02-16T08:00:36.461Z,79.50
2019-02-16T08:03:29.537Z,79.80
2019-02-16T08:06:20.522Z,80.10
2019-02-16T08:08:55.177Z,80.70
2019-02-16T08:11:48.724Z,80.80
2019-02-16T08:14:45.181Z,81.60
2019-02-16T08:17:32.673Z,81.90
2019-02-16T08:20:15.537Z,82.00
2019-02-16T08:23:10.220Z,82.00
2019-02-16T08:25:55.926Z,81.60
2019-02-16T08:28:47.911Z,81.90
2019-02-16T08:31:28.909Z,81.70
2019-02-16T08:34:20.605Z,82.70
2019-02-16T08:37:18.563Z,81.90
2019-02-16T08:40:06.167Z,81.70
2019-02-16T08:42:55.074Z,81.60
2019-02-16T08:45:39.392Z,81.30
2019-02-16T08:48:30.946Z,81.70
2019-02-16T08:51:17.590Z,81.60
2019-02-16T08:54:09.501Z,81.40
2019-02-16T08:56:50.081Z,81.40
2019-02-16T08:59:54.382Z,81.60
2019-02-16T09:02:49.518Z,81.20
2019-02-16T09:05:26.383Z,81.30
2019-02-16T09:08:11.026Z,79.80
2019-02-16T09:11:09.357Z,76.50
2019-02-16T09:13:53.978Z,76.60
2019-02-16T09:16:35.959Z,76.10
2019-02-16T09:19:32.699Z,74.10
2019-02-16T09:22:22.058Z,73.10
2019-02-16T09:24:59.656Z,68.70
2019-02-16T09:27:43.657Z,67.50
2019-02-16T09:30:23.458Z,64.50
2019-02-16T09:33:27.383Z,62.20
2019-02-16T09:36:31.676Z,60.90
2019-02-16T09:39:09.513Z,60.00
2019-02-16T09:41:44.565Z,57.50
2019-02-16T09:44:36.465Z,58.40
2019-02-16T09:47:34.383Z,58.60
2019-02-16T09:50:23.682Z,57.70
2019-02-16T09:53:18.251Z,57.00
2019-02-16T09:56:16.227Z,56.60
2019-02-16T09:59:13.881Z,57.30
2019-02-16T10:02:06.422Z,57.00
2019-02-16T10:04:46.952Z,57.20
2019-02-16T10:07:36.352Z,57.90
2019-02-16T10:10:28.214Z,58.30
2019-02-16T10:13:19.822Z,58.80
2019-02-16T10:16:07.317Z,59.80
2019-02-16T10:18:47.985Z,61.90
2019-02-16T10:21:35.679Z,62.00
2019-02-16T10:24:27.242Z,63.10
2019-02-16T10:27:11.886Z,62.30
2019-02-16T10:29:53.679Z,63.00
2019-02-16T10:32:57.853Z,64.10
2019-02-16T10:35:36.749Z,63.70
2019-02-16T10:38:44.075Z,64.50
2019-02-16T10:41:26.638Z,64.40
2019-02-16T10:44:14.098Z,65.20
2019-02-16T10:46:59.921Z,64.90
2019-02-16T10:49:47.521Z,64.00
2019-02-16T10:52:35.318Z,62.50
2019-02-16T10:55:30.157Z,61.80
2019-02-16T10:58:17.566Z,61.70
2019-02-16T11:01:00.884Z,62.00
2019-02-16T11:03:49.831Z,61.30
2019-02-16T11:06:50.736Z,61.20
2019-02-16T11:09:39.589Z,61.00
2019-02-16T11:12:34.778Z,60.90
2019-02-16T11:15:30.403Z,58.10
2019-02-16T11:18:22.635Z,58.90
2019-02-16T11:21:17.595Z,59.10
2019-02-16T11:24:01.003Z,58.30
2019-02-16T11:26:55.920Z,58.10
2019-02-16T11:29:44.367Z,55.80
2019-02-16T11:32:33.179Z,57.60
2019-02-16T11:35:28.366Z,57.40
2019-02-16T11:38:16.383Z,57.20
2019-02-16T11:40:54.195Z,56.80
2019-02-16T11:43:31.351Z,56.90
2019-02-16T11:46:10.409Z,55.00
2019-02-16T11:48:48.166Z,56.00
2019-02-16T11:51:32.328Z,55.80
2019-02-16T11:54:21.149Z,55.00
2019-02-16T11:57:11.690Z,55.70
2019-02-16T12:00:03.554Z,55.30
2019-02-16T12:03:07.710Z,55.10
2019-02-16T12:05:54.749Z,55.30
2019-02-16T12:08:40.112Z,55.70
2019-02-16T12:11:29.014Z,54.90
2019-02-16T12:14:18.007Z,55.00
2019-02-16T12:17:00.858Z,54.20
2019-02-16T12:19:40.508Z,51.60
2019-02-16T12:22:21.361Z,53.70
2019-02-16T12:25:08.847Z,54.30
2019-02-16T12:27:50.423Z,53.40
2019-02-16T12:30:46.635Z,50.60
2019-02-16T12:33:34.325Z,51.90
2019-02-16T12:36:29.462Z,49.60
2019-02-16T12:39:20.997Z,49.80
2019-02-16T12:42:21.967Z,48.50
2019-02-16T12:45:13.759Z,46.70
2019-02-16T12:48:08.868Z,48.20
2019-02-16T12:50:59.482Z,47.10
2019-02-16T12:53:51.278Z,47.70
2019-02-16T12:56:41.920Z,48.20
2019-02-16T12:59:34.041Z,46.40
2019-02-16T13:02:24.660Z,45.90
2019-02-16T13:05:12.429Z,45.30
2019-02-16T13:08:10.315Z,44.80
2019-02-16T13:10:48.300Z,44.70
2019-02-16T13:13:31.267Z,44.90
2019-02-16T13:16:16.378Z,44.70
2019-02-16T13:19:11.412Z,44.80
2019-02-16T13:21:54.625Z,43.20
2019-02-16T13:24:48.520Z,43.10
2019-02-16T13:27:35.066Z,43.40
2019-02-16T13:30:25.738Z,42.90
2019-02-16T13:33:15.195Z,42.90
2019-02-16T13:36:10.071Z,42.60
2019-02-16T13:39:07.253Z,41.30
2019-02-16T13:41:59.344Z,41.40
2019-02-16T13:44:51.129Z,44.00
2019-02-16T13:47:38.786Z,42.50
2019-02-16T13:50:21.554Z,40.90
2019-02-16T13:53:02.778Z,41.70
2019-02-16T13:56:03.496Z,41.70
2019-02-16T13:58:55.152Z,41.80
2019-02-16T14:01:38.038Z,41.40
2019-02-16T14:05:50.288Z,37.00
2019-02-16T14:08:39.519Z,39.60
2019-02-16T14:14:08.729Z,39.40
2019-02-16T14:21:48.760Z,39.60
2019-02-16T14:24:18.306Z,40.30
2019-02-16T14:26:47.760Z,40.80
2019-02-16T14:31:43.451Z,38.80
2019-02-16T14:34:11.336Z,37.70
2019-02-16T14:36:39.202Z,38.20
2019-02-16T14:39:12.946Z,37.40
2019-02-16T14:41:42.124Z,36.80
2019-02-16T14:44:10.001Z,36.90
2019-02-16T14:46:39.389Z,37.10
2019-02-16T14:49:07.338Z,37.80
2019-02-16T14:51:35.153Z,38.50
2019-02-16T14:54:03.004Z,37.90
2019-02-16T14:56:32.411Z,38.40
2019-02-16T14:59:00.158Z,37.70
2019-02-16T15:01:28.186Z,37.20
2019-02-16T15:03:56.117Z,37.80
2019-02-16T15:06:23.911Z,36.80
2019-02-16T15:08:51.751Z,36.70
2019-02-16T15:11:19.626Z,36.20
2019-02-16T15:13:49.448Z,35.80
2019-02-16T15:16:17.214Z,37.30
2019-02-16T15:18:44.998Z,37.00
2019-02-16T15:23:40.473Z,36.10
2019-02-16T15:26:08.230Z,37.30
2019-02-16T15:28:36.047Z,36.60
2019-02-16T15:31:03.861Z,35.60
2019-02-16T15:33:31.754Z,36.20
2019-02-16T15:35:59.572Z,36.80
2019-02-16T15:38:27.381Z,36.90
2019-02-16T15:40:55.198Z,37.10
2019-02-16T15:43:22.941Z,36.80
2019-02-16T15:45:50.690Z,37.10
2019-02-16T15:48:18.558Z,36.70
2019-02-16T15:50:46.408Z,40.60
2019-02-16T15:53:14.332Z,35.90
2019-02-16T15:55:42.138Z,36.40
2019-02-16T15:58:12.451Z,36.00
2019-02-16T16:00:40.399Z,37.20
2019-02-16T16:05:36.293Z,36.60
2019-02-16T16:08:22.502Z,37.50
2019-02-16T16:10:57.734Z,38.00
2019-02-16T16:13:49.720Z,38.10
2019-02-16T16:16:38.674Z,38.30
2019-02-16T16:19:42.410Z,38.60
2019-02-16T16:22:30.156Z,38.50
2019-02-16T16:25:10.521Z,38.60
2019-02-16T16:27:59.371Z,39.20
2019-02-16T16:30:46.816Z,38.70
2019-02-16T16:33:37.899Z,38.80
2019-02-16T16:36:45.223Z,39.20
2019-02-16T16:39:21.746Z,40.10
2019-02-16T16:41:56.302Z,39.80
2019-02-16T16:44:51.373Z,40.10
2019-02-16T16:47:58.388Z,40.40
2019-02-16T16:51:02.643Z,40.60
2019-02-16T16:53:57.556Z,40.90
2019-02-16T16:56:45.062Z,41.70
2019-02-16T16:59:28.387Z,41.10
2019-02-16T17:02:29.552Z,41.60
2019-02-16T17:05:18.445Z,41.80
2019-02-16T17:07:55.958Z,41.80
2019-02-16T17:10:38.507Z,42.00
2019-02-16T17:13:15.142Z,42.10
2019-02-16T17:15:53.196Z,42.40
2019-02-16T17:18:32.465Z,43.00
2019-02-16T17:21:21.357Z,43.10
2019-02-16T17:24:01.677Z,43.80
2019-02-16T17:26:59.620Z,44.50
2019-02-16T17:29:41.024Z,44.40
2019-02-16T17:32:22.323Z,44.40
2019-02-16T17:35:02.655Z,44.50
2019-02-16T17:37:50.077Z,44.20
2019-02-16T17:40:54.282Z,44.60
2019-02-16T17:50:13.224Z,45.10
2019-02-16T17:52:50.201Z,44.30
2019-02-16T17:55:42.099Z,44.50
2019-02-16T17:58:35.032Z,44.60
2019-02-16T18:01:36.195Z,44.60
2019-02-16T18:04:25.300Z,44.70
2019-02-16T18:07:14.247Z,44.90
2019-02-16T18:10:09.064Z,45.10
2019-02-16T18:13:10.483Z,45.10
2019-02-16T18:16:05.266Z,45.30
2019-02-16T18:18:56.968Z,45.30
2019-02-16T18:21:37.749Z,45.10
2019-02-16T18:24:12.571Z,45.40
2019-02-16T18:27:00.104Z,45.40
2019-02-16T18:29:49.272Z,45.50
2019-02-16T18:32:46.726Z,45.70
2019-02-16T18:35:34.386Z,46.10
2019-02-16T18:38:29.281Z,46.00
2019-02-16T18:41:17.013Z,46.40
2019-02-16T18:44:04.472Z,47.00
2019-02-16T18:46:40.835Z,46.70
2019-02-16T18:49:29.798Z,47.30
2019-02-16T18:52:27.566Z,47.80
2019-02-16T18:55:11.384Z,47.50
2019-02-16T18:57:59.259Z,47.70
2019-02-16T19:00:36.986Z,48.20
2019-02-16T19:03:18.803Z,47.90
2019-02-16T19:06:07.819Z,48.40
2019-02-16T19:08:59.963Z,48.20
2019-02-16T19:11:54.968Z,48.10
2019-02-16T19:14:35.635Z,47.80
2019-02-16T19:17:24.543Z,48.00
2019-02-16T19:20:14.873Z,48.40
2019-02-16T19:23:19.135Z,48.60
2019-02-16T19:26:09.934Z,48.60
2019-02-16T19:28:50.039Z,48.80
2019-02-16T19:31:39.038Z,49.00
2019-02-16T19:34:37.242Z,49.20
2019-02-16T19:37:18.397Z,50.30
2019-02-16T19:39:54.568Z,51.00
2019-02-16T19:42:43.557Z,51.50
2019-02-16T19:45:52.410Z,52.00
2019-02-16T19:48:39.772Z,51.50
2019-02-16T19:51:19.965Z,51.30
2019-02-16T19:54:03.270Z,50.80
2019-02-16T19:56:51.117Z,50.60
2019-02-16T19:59:40.011Z,51.10
2019-02-16T20:02:38.048Z,51.20
2019-02-16T20:05:23.231Z,51.70
2019-02-16T20:08:15.006Z,52.20
2019-02-16T20:11:02.510Z,52.70
2019-02-16T20:13:54.025Z,52.80
2019-02-16T20:16:48.911Z,53.80
2019-02-16T20:19:36.130Z,54.70
2019-02-16T20:22:16.621Z,54.70
2019-02-16T20:24:55.006Z,54.30
2019-02-16T20:27:52.777Z,54.10
2019-02-16T20:30:53.782Z,54.10
2019-02-16T20:33:44.998Z,54.00
2019-02-16T20:36:34.446Z,54.20
2019-02-16T20:39:31.170Z,54.10
2019-02-16T20:42:28.755Z,54.70
2019-02-16T20:45:17.733Z,54.80
2019-02-16T20:48:21.963Z,55.30
2019-02-16T20:51:03.856Z,55.60
2019-02-16T20:53:52.885Z,55.60
2019-02-16T20:56:40.446Z,55.60
2019-02-16T20:59:44.663Z,55.10
2019-02-16T21:02:33.580Z,55.10
2019-02-16T21:05:22.977Z,55.20
2019-02-16T21:08:10.836Z,55.40
2019-02-16T21:10:58.671Z,56.10
2019-02-16T21:13:53.562Z,56.60
2019-02-16T21:16:51.517Z,57.00
2019-02-16T21:19:33.971Z,56.90
2019-02-16T21:22:25.683Z,56.20
2019-02-16T21:25:23.454Z,56.70
2019-02-16T21:28:05.449Z,56.00
2019-02-16T21:30:44.540Z,57.30
2019-02-16T21:33:39.611Z,57.30
2019-02-16T21:36:21.741Z,57.00
2019-02-16T21:39:10.891Z,56.90
2019-02-16T21:41:52.960Z,56.80
2019-02-16T21:44:38.197Z,56.80
2019-02-16T21:47:30.213Z,56.70
2019-02-16T21:50:13.186Z,57.00
2019-02-16T21:53:01.035Z,57.70
2019-02-16T21:55:41.288Z,58.70
2019-02-16T21:58:42.158Z,59.60
2019-02-16T22:01:33.767Z,60.20
2019-02-16T22:04:22.677Z,61.20
2019-02-16T22:07:30.011Z,61.40
2019-02-16T22:10:18.891Z,61.30
2019-02-16T22:13:05.132Z,61.90
2019-02-16T22:15:33.216Z,60.70
2019-02-16T22:18:00.975Z,60.20
2019-02-16T22:20:28.769Z,60.30
2019-02-16T22:22:56.491Z,60.10
2019-02-16T22:25:24.405Z,60.30
2019-02-16T22:27:52.198Z,60.20
2019-02-16T22:30:20.057Z,59.70
2019-02-16T22:32:47.802Z,59.60
2019-02-16T22:35:15.589Z,59.30
2019-02-16T22:37:43.327Z,59.00
2019-02-16T22:40:11.971Z,58.70
2019-02-16T22:42:39.800Z,58.50
2019-02-16T22:45:07.864Z,58.60
2019-02-16T22:47:37.100Z,58.60
2019-02-16T22:50:08.100Z,58.90
2019-02-16T22:52:37.012Z,60.50
2019-02-16T22:55:05.138Z,61.80
2019-02-16T22:57:34.473Z,62.50
2019-02-16T23:00:02.676Z,62.50
2019-02-16T23:02:32.076Z,61.80
2019-02-16T23:04:59.937Z,62.60
2019-02-16T23:07:28.045Z,62.30
2019-02-16T23:09:55.874Z,63.00
2019-02-16T23:12:23.888Z,63.10
2019-02-16T23:14:51.913Z,62.50
2019-02-16T23:17:19.711Z,61.90
2019-02-16T23:19:47.451Z,61.40
2019-02-16T23:22:15.462Z,61.60
2019-02-16T23:24:43.201Z,61.70
2019-02-16T23:27:11.103Z,61.60
2019-02-16T23:29:38.845Z,61.30
2019-02-16T23:32:06.734Z,61.70
2019-02-16T23:34:34.427Z,61.90
2019-02-16T23:37:02.223Z,62.00
2019-02-16T23:39:30.038Z,62.00
2019-02-16T23:41:57.816Z,62.30
2019-02-16T23:44:25.533Z,62.90
2019-02-16T23:46:53.338Z,63.60
2019-02-16T23:49:20.937Z,63.70
2019-02-16T23:51:48.734Z,63.90
2019-02-16T23:54:16.557Z,63.60
2019-02-16T23:56:44.330Z,63.70
2019-02-16T23:59:12.052Z,63.30
